createdAt,value
2023-04-21T00:01:57.114Z,9.30
2023-04-21T00:06:02.134Z,9.30
2023-04-21T00:10:07.641Z,9.30
2023-04-21T00:14:11.102Z,9.30
2023-04-21T00:18:21.764Z,9.30
2023-04-21T00:22:27.208Z,9.30
2023-04-21T00:26:34.241Z,9.30
2023-04-21T00:30:40.958Z,9.30
2023-04-21T00:34:50.077Z,9.30
2023-04-21T00:38:54.997Z,9.30
2023-04-21T00:43:00.976Z,9.30
2023-04-21T00:47:07.032Z,9.30
2023-04-21T00:51:11.579Z,9.30
2023-04-21T00:55:17.312Z,9.30
2023-04-21T00:59:20.667Z,9.30
2023-04-21T01:03:24.331Z,9.20
2023-04-21T01:07:29.775Z,9.20
2023-04-21T01:11:33.033Z,9.20
2023-04-21T01:15:36.074Z,9.20
2023-04-21T01:19:45.630Z,9.10
2023-04-21T01:23:55.363Z,9.10
2023-04-21T01:28:02.776Z,9.10
2023-04-21T01:32:07.455Z,9.10
2023-04-21T01:36:11.100Z,9.10
2023-04-21T01:40:17.025Z,9.10
2023-04-21T01:44:20.531Z,9.10
2023-04-21T01:48:23.572Z,9.10
2023-04-21T01:52:28.737Z,9.10
2023-04-21T01:56:36.296Z,9.20
2023-04-21T02:00:39.421Z,9.20
2023-04-21T02:04:42.692Z,9.20
2023-04-21T02:08:48.102Z,9.20
2023-04-21T02:13:06.296Z,9.20
2023-04-21T02:17:10.605Z,9.20
2023-04-21T02:21:14.002Z,9.20
2023-04-21T02:25:17.113Z,9.20
2023-04-21T02:29:24.216Z,9.20
2023-04-21T02:33:27.306Z,9.20
2023-04-21T02:37:32.080Z,9.20
2023-04-21T02:41:36.677Z,9.20
2023-04-21T02:45:41.253Z,9.20
2023-04-21T02:49:47.089Z,9.30
2023-04-21T02:53:53.229Z,9.20
2023-04-21T02:57:56.551Z,9.20
2023-04-21T03:02:02.111Z,9.10
2023-04-21T03:06:07.864Z,9.10
2023-04-21T03:10:15.109Z,9.00
2023-04-21T03:14:18.114Z,8.80
2023-04-21T03:18:24.951Z,8.80
2023-04-21T03:22:29.343Z,8.60
2023-04-21T03:26:33.450Z,8.60
2023-04-21T03:30:38.277Z,8.50
2023-04-21T03:34:46.536Z,8.50
2023-04-21T03:38:52.553Z,8.50
2023-04-21T03:42:57.457Z,8.50
2023-04-21T03:47:05.376Z,8.50
2023-04-21T03:51:12.624Z,8.60
2023-04-21T03:55:15.676Z,8.60
2023-04-21T03:59:22.681Z,8.70
2023-04-21T04:03:30.180Z,8.70
2023-04-21T04:07:35.264Z,8.70
2023-04-21T04:11:39.631Z,8.70
2023-04-21T04:15:44.356Z,8.60
2023-04-21T04:19:47.416Z,8.60
2023-04-21T04:23:55.439Z,8.50
2023-04-21T04:27:58.865Z,8.50
2023-04-21T04:32:04.267Z,8.50
2023-04-21T04:36:10.596Z,8.50
2023-04-21T04:40:22.018Z,8.60
2023-04-21T04:44:25.929Z,8.60
2023-04-21T04:48:31.917Z,8.60
2023-04-21T04:52:35.022Z,8.60
2023-04-21T04:56:40.616Z,8.50
2023-04-21T05:00:46.057Z,8.50
2023-04-21T05:04:49.406Z,8.50
2023-04-21T05:08:57.539Z,8.50
2023-04-21T05:13:01.994Z,8.60
2023-04-21T05:17:08.421Z,8.60
2023-04-21T05:21:11.522Z,8.70
2023-04-21T05:25:17.315Z,8.80
2023-04-21T05:29:23.011Z,8.90
2023-04-21T05:33:27.023Z,9.10
2023-04-21T05:37:31.974Z,9.20
2023-04-21T05:41:36.740Z,9.40
2023-04-21T05:45:42.368Z,9.60
2023-04-21T05:49:53.176Z,9.80
2023-04-21T05:53:56.229Z,10.00
2023-04-21T05:58:02.556Z,10.10
2023-04-21T06:02:07.253Z,10.30
2023-04-21T06:06:11.582Z,10.40
2023-04-21T06:10:16.106Z,10.60
2023-04-21T06:14:19.501Z,10.80
2023-04-21T06:18:27.016Z,10.90
2023-04-21T06:22:30.027Z,11.10
2023-04-21T06:26:40.182Z,11.30
2023-04-21T06:30:45.253Z,11.40
2023-04-21T06:34:49.647Z,11.50
2023-04-21T06:38:54.137Z,11.60
2023-04-21T06:42:57.874Z,11.90
2023-04-21T06:47:06.208Z,12.10
2023-04-21T06:51:10.655Z,12.30
2023-04-21T06:55:13.879Z,12.50
2023-04-21T06:59:22.922Z,12.70
2023-04-21T07:03:29.031Z,13.00
2023-04-21T07:07:33.456Z,13.10
2023-04-21T07:11:36.839Z,13.30
2023-04-21T07:15:40.077Z,13.60
2023-04-21T07:19:43.065Z,14.40
2023-04-21T07:23:49.522Z,15.00
2023-04-21T07:27:52.594Z,15.60
2023-04-21T07:32:00.396Z,16.00
2023-04-21T07:36:03.452Z,16.60
2023-04-21T07:40:10.634Z,17.10
2023-04-21T07:44:16.616Z,17.40
2023-04-21T07:48:19.640Z,17.60
2023-04-21T07:52:23.090Z,17.50
2023-04-21T07:56:29.449Z,17.70
2023-04-21T08:00:32.600Z,18.20
2023-04-21T08:04:35.794Z,18.70
2023-04-21T08:08:52.808Z,18.70
2023-04-21T08:12:57.271Z,18.90
2023-04-21T08:17:00.959Z,19.00
2023-04-21T08:21:06.446Z,19.50
2023-04-21T08:25:09.872Z,20.00
2023-04-21T08:29:16.566Z,20.40
2023-04-21T08:33:26.760Z,20.70
2023-04-21T08:37:32.185Z,20.60
2023-04-21T08:41:35.728Z,20.60
2023-04-21T08:45:41.283Z,20.50
2023-04-21T08:49:45.397Z,20.50
2023-04-21T08:53:48.582Z,20.70
2023-04-21T08:57:51.887Z,20.70
2023-04-21T09:02:13.814Z,20.50
2023-04-21T09:06:17.230Z,20.20
2023-04-21T09:10:24.869Z,20.40
2023-04-21T09:14:36.105Z,20.80
2023-04-21T09:18:40.772Z,21.30
2023-04-21T09:22:43.898Z,21.50
2023-04-21T09:26:51.909Z,22.00
2023-04-21T09:30:59.403Z,22.30
2023-04-21T09:35:06.468Z,22.60
2023-04-21T09:43:15.615Z,23.20
2023-04-21T09:47:18.863Z,23.10
2023-04-21T09:51:46.101Z,23.00
2023-04-21T09:55:52.876Z,22.90
2023-04-21T10:00:02.778Z,22.10
2023-04-21T10:04:06.520Z,21.70
2023-04-21T10:08:12.725Z,22.00
2023-04-21T10:12:16.919Z,22.30
2023-04-21T10:16:24.160Z,22.90
2023-04-21T10:20:32.852Z,23.10
2023-04-21T10:24:47.351Z,23.10
2023-04-21T10:28:57.657Z,23.10
2023-04-21T10:33:04.779Z,23.40
2023-04-21T10:37:15.713Z,23.40
2023-04-21T10:41:30.604Z,23.00
2023-04-21T10:45:33.934Z,23.00
2023-04-21T10:49:41.005Z,23.00
2023-04-21T10:53:46.124Z,23.10
2023-04-21T10:57:51.417Z,23.60
2023-04-21T11:01:57.708Z,23.80
2023-04-21T11:06:00.740Z,23.70
2023-04-21T11:10:08.290Z,23.40
2023-04-21T11:14:12.898Z,22.80
2023-04-21T11:18:20.764Z,23.40
2023-04-21T11:22:25.285Z,24.20
2023-04-21T11:26:32.901Z,24.80
2023-04-21T11:30:43.583Z,25.10
2023-04-21T11:34:47.045Z,25.10
2023-04-21T11:38:50.391Z,25.80
2023-04-21T11:42:55.641Z,26.20
2023-04-21T11:47:02.802Z,26.50
2023-04-21T11:51:16.390Z,26.50
2023-04-21T11:55:23.036Z,25.70
2023-04-21T11:59:26.524Z,24.70
2023-04-21T12:03:32.941Z,24.00
2023-04-21T12:07:39.696Z,23.60
2023-04-21T12:11:42.925Z,23.30
2023-04-21T12:15:46.315Z,23.00
2023-04-21T12:19:52.614Z,22.70
2023-04-21T12:23:55.677Z,22.40
2023-04-21T12:28:01.845Z,22.40
2023-04-21T12:32:07.065Z,22.60
2023-04-21T12:36:12.298Z,22.60
2023-04-21T12:40:23.323Z,22.70
2023-04-21T12:44:29.794Z,22.70
2023-04-21T12:48:34.828Z,22.50
2023-04-21T12:52:39.243Z,22.30
2023-04-21T12:56:44.171Z,22.50
2023-04-21T13:00:47.222Z,22.30
2023-04-21T13:04:50.264Z,22.40
2023-04-21T13:09:01.352Z,22.50
2023-04-21T13:13:04.355Z,22.60
2023-04-21T13:17:07.457Z,22.80
2023-04-21T13:21:10.767Z,23.00
2023-04-21T13:25:16.452Z,23.00
2023-04-21T13:29:23.694Z,23.00
2023-04-21T13:33:27.093Z,23.30
2023-04-21T13:37:31.100Z,23.80
2023-04-21T13:41:37.812Z,24.50
2023-04-21T13:45:41.443Z,25.20
2023-04-21T13:49:46.232Z,26.10
2023-04-21T13:53:49.362Z,26.60
2023-04-21T13:57:54.252Z,27.00
2023-04-21T14:02:00.359Z,27.10
2023-04-21T14:06:05.249Z,27.10
2023-04-21T14:10:10.703Z,27.00
2023-04-21T14:14:24.254Z,27.10
2023-04-21T14:18:39.015Z,27.20
2023-04-21T14:22:47.477Z,27.40
2023-04-21T14:26:53.211Z,27.30
2023-04-21T14:30:58.028Z,27.20
2023-04-21T14:35:03.874Z,27.10
2023-04-21T14:39:07.055Z,26.90
2023-04-21T14:43:13.039Z,26.80
2023-04-21T14:47:17.613Z,26.60
2023-04-21T14:51:21.675Z,26.50
2023-04-21T14:55:25.425Z,26.50
2023-04-21T14:59:28.626Z,26.50
2023-04-21T15:03:33.862Z,26.40
2023-04-21T15:07:40.766Z,26.30
2023-04-21T15:11:47.252Z,26.10
2023-04-21T15:15:51.852Z,26.10
2023-04-21T15:19:58.130Z,26.10
2023-04-21T15:24:01.161Z,25.90
2023-04-21T15:28:07.831Z,25.90
2023-04-21T15:32:15.015Z,25.90
2023-04-21T15:36:19.737Z,25.70
2023-04-21T15:40:22.858Z,25.60
2023-04-21T15:44:26.661Z,25.50
2023-04-21T15:48:32.427Z,25.30
2023-04-21T15:52:38.065Z,25.30
2023-04-21T15:56:44.430Z,25.40
2023-04-21T16:00:47.534Z,25.40
2023-04-21T16:04:52.868Z,25.40
2023-04-21T16:08:57.953Z,25.60
2023-04-21T16:13:01.322Z,25.70
2023-04-21T16:17:04.760Z,25.80
2023-04-21T16:21:08.154Z,26.20
2023-04-21T16:25:17.045Z,26.30
2023-04-21T16:29:23.916Z,26.50
2023-04-21T16:33:27.333Z,26.60
2023-04-21T16:37:30.452Z,26.80
2023-04-21T16:41:37.907Z,27.00
2023-04-21T16:45:42.226Z,27.10
2023-04-21T16:49:45.344Z,27.30
2023-04-21T16:53:52.198Z,27.40
2023-04-21T16:57:58.042Z,27.40
2023-04-21T17:02:01.155Z,27.20
2023-04-21T17:06:05.028Z,27.00
2023-04-21T17:10:08.954Z,26.80
2023-04-21T17:14:26.556Z,26.30
2023-04-21T17:18:29.626Z,25.60
2023-04-21T17:22:36.916Z,24.40
2023-04-21T17:26:41.156Z,23.40
2023-04-21T17:30:45.702Z,22.50
2023-04-21T17:34:49.058Z,21.90
2023-04-21T17:38:55.708Z,21.40
2023-04-21T17:43:02.040Z,20.90
2023-04-21T17:47:09.588Z,20.50
2023-04-21T17:51:26.341Z,20.20
2023-04-21T17:55:29.651Z,19.80
2023-04-21T17:59:35.825Z,19.60
2023-04-21T18:03:42.388Z,19.30
2023-04-21T18:07:45.686Z,19.00
2023-04-21T18:11:51.409Z,18.70
2023-04-21T18:15:54.949Z,18.50
2023-04-21T18:19:59.735Z,18.00
2023-04-21T18:24:03.109Z,17.50
2023-04-21T18:28:07.378Z,16.90
2023-04-21T18:32:15.378Z,16.40
2023-04-21T18:36:21.941Z,16.00
2023-04-21T18:40:25.050Z,15.70
2023-04-21T18:44:28.447Z,15.30
2023-04-21T18:48:33.824Z,14.90
2023-04-21T18:52:39.704Z,14.60
2023-04-21T18:56:44.614Z,14.30
2023-04-21T19:00:47.954Z,14.10
2023-04-21T19:04:51.034Z,14.00
2023-04-21T19:08:59.373Z,13.80
2023-04-21T19:13:07.844Z,13.60
2023-04-21T19:17:10.871Z,13.40
2023-04-21T19:21:13.924Z,13.30
2023-04-21T19:25:18.627Z,13.30
2023-04-21T19:29:23.304Z,13.30
2023-04-21T19:33:28.370Z,13.40
2023-04-21T19:37:35.176Z,13.20
2023-04-21T19:41:41.729Z,13.10
2023-04-21T19:45:48.461Z,12.80
2023-04-21T19:49:53.545Z,12.50
2023-04-21T19:54:10.000Z,12.30
2023-04-21T19:58:28.626Z,12.20
2023-04-21T20:02:44.494Z,12.00
2023-04-21T20:06:50.688Z,12.00
2023-04-21T20:11:01.002Z,12.00
2023-04-21T20:15:17.101Z,12.30
2023-04-21T20:19:22.930Z,12.60
2023-04-21T20:23:26.024Z,13.00
2023-04-21T20:27:29.386Z,13.10
2023-04-21T20:31:36.743Z,13.30
2023-04-21T20:35:44.183Z,13.30
2023-04-21T20:39:47.792Z,13.20
2023-04-21T20:43:50.844Z,13.10
2023-04-21T20:47:55.286Z,13.00
2023-04-21T20:51:58.849Z,12.90
2023-04-21T20:56:03.806Z,12.80
2023-04-21T21:00:09.697Z,12.70
2023-04-21T21:04:16.990Z,12.70
2023-04-21T21:08:20.280Z,12.60
2023-04-21T21:12:26.626Z,12.50
2023-04-21T21:16:33.878Z,12.50
2023-04-21T21:20:41.030Z,12.30
2023-04-21T21:24:46.943Z,12.00
2023-04-21T21:28:52.347Z,11.70
2023-04-21T21:32:56.188Z,11.50
2023-04-21T21:37:01.296Z,11.30
2023-04-21T21:41:10.633Z,11.10
2023-04-21T21:45:13.725Z,10.90
2023-04-21T21:49:18.204Z,10.70
2023-04-21T21:53:22.935Z,10.70
2023-04-21T21:57:28.452Z,10.50
2023-04-21T22:01:31.854Z,10.30
2023-04-21T22:05:37.087Z,10.20
2023-04-21T22:09:44.256Z,10.10
2023-04-21T22:13:47.633Z,10.10
2023-04-21T22:17:56.024Z,10.30
2023-04-21T22:21:59.287Z,10.70
2023-04-21T22:26:04.001Z,11.00
2023-04-21T22:30:08.824Z,11.00
2023-04-21T22:34:16.025Z,10.90
2023-04-21T22:38:22.975Z,10.70
2023-04-21T22:42:30.396Z,10.40
2023-04-21T22:46:36.579Z,10.10
2023-04-21T22:50:44.151Z,9.80
2023-04-21T22:54:49.885Z,9.60
2023-04-21T22:58:57.453Z,9.30
2023-04-21T23:03:06.182Z,9.20
2023-04-21T23:07:11.494Z,9.20
2023-04-21T23:11:17.077Z,9.60
2023-04-21T23:15:23.389Z,10.00
2023-04-21T23:19:28.573Z,10.30
2023-04-21T23:23:33.465Z,10.50
2023-04-21T23:27:36.588Z,10.80
2023-04-21T23:31:43.083Z,11.00
2023-04-21T23:35:56.397Z,11.10
2023-04-21T23:39:59.595Z,11.20
2023-04-21T23:44:04.332Z,11.10
2023-04-21T23:48:09.364Z,10.80
2023-04-21T23:52:13.778Z,10.60
2023-04-21T23:56:16.946Z,10.30
